createdAt,value
2023-05-22T00:01:29.731Z,98472.64
2023-05-22T00:03:57.103Z,98468.98
2023-05-22T00:06:25.682Z,98468.01
2023-05-22T00:08:52.931Z,98464.08
2023-05-22T00:11:20.807Z,98467.80
2023-05-22T00:13:47.927Z,98467.48
2023-05-22T00:16:15.318Z,98467.85
2023-05-22T00:18:42.895Z,98466.36
2023-05-22T00:21:10.663Z,98467.84
2023-05-22T00:23:37.919Z,98470.46
2023-05-22T00:26:05.174Z,98466.73
2023-05-22T00:28:32.433Z,98467.00
2023-05-22T00:30:59.583Z,98463.98
2023-05-22T00:33:26.846Z,98467.09
2023-05-22T00:35:54.102Z,98463.67
2023-05-22T00:38:32.468Z,98468.75
2023-05-22T00:41:05.473Z,98469.48
2023-05-22T00:43:35.837Z,98470.87
2023-05-22T00:46:03.530Z,98473.00
2023-05-22T00:48:30.662Z,98469.48
2023-05-22T00:50:58.935Z,98466.09
2023-05-22T00:53:28.328Z,98467.85
2023-05-22T00:55:58.264Z,98467.28
2023-05-22T00:58:26.748Z,98464.17
2023-05-22T01:00:55.136Z,98463.96
2023-05-22T01:03:25.609Z,98464.54
2023-05-22T01:05:55.688Z,98463.63
2023-05-22T01:08:23.473Z,98465.00
2023-05-22T01:10:56.649Z,98465.11
2023-05-22T01:13:33.326Z,98461.65
2023-05-22T01:16:19.180Z,98458.41
2023-05-22T01:19:17.518Z,98457.65
2023-05-22T01:22:33.749Z,98456.48
2023-05-22T01:25:34.878Z,98454.11
2023-05-22T01:28:14.309Z,98455.75
2023-05-22T01:31:01.539Z,98454.42
2023-05-22T01:33:33.513Z,98453.13
2023-05-22T01:36:02.284Z,98452.57
2023-05-22T01:38:30.878Z,98458.45
2023-05-22T01:40:59.560Z,98456.19
2023-05-22T01:43:27.312Z,98455.45
2023-05-22T01:45:54.498Z,98456.05
2023-05-22T01:48:22.158Z,98456.59
2023-05-22T01:50:51.778Z,98453.59
2023-05-22T01:53:51.769Z,98452.39
2023-05-22T01:56:34.287Z,98451.73
2023-05-22T01:59:37.050Z,98449.15
2023-05-22T02:02:10.270Z,98452.08
2023-05-22T02:04:42.237Z,98451.20
2023-05-22T02:07:12.599Z,98452.77
2023-05-22T02:09:42.902Z,98450.22
2023-05-22T02:12:13.354Z,98452.59
2023-05-22T02:14:42.703Z,98456.08
2023-05-22T02:17:10.074Z,98455.42
2023-05-22T02:19:37.359Z,98451.66
2023-05-22T02:22:05.100Z,98456.60
2023-05-22T02:24:36.696Z,98454.36
2023-05-22T02:27:04.113Z,98451.38
2023-05-22T02:29:31.469Z,98450.54
2023-05-22T02:31:58.987Z,98453.73
2023-05-22T02:34:31.307Z,98452.88
2023-05-22T02:36:59.819Z,98449.09
2023-05-22T02:39:27.371Z,98452.08
2023-05-22T02:41:54.722Z,98456.08
2023-05-22T02:44:22.180Z,98456.87
2023-05-22T02:46:49.587Z,98458.91
2023-05-22T02:49:16.829Z,98456.33
2023-05-22T02:51:47.125Z,98451.45
2023-05-22T02:54:15.971Z,98451.98
2023-05-22T02:56:43.403Z,98449.33
2023-05-22T02:59:11.216Z,98450.46
2023-05-22T03:01:39.555Z,98449.20
2023-05-22T03:04:07.274Z,98444.33
2023-05-22T03:06:34.756Z,98447.27
2023-05-22T03:09:03.656Z,98445.27
2023-05-22T03:11:31.425Z,98440.69
2023-05-22T03:13:58.789Z,98444.15
2023-05-22T03:16:26.234Z,98444.39
2023-05-22T03:19:14.668Z,98443.45
2023-05-22T03:21:45.476Z,98444.92
2023-05-22T03:24:13.213Z,98448.27
2023-05-22T03:26:41.429Z,98448.43
2023-05-22T03:29:10.460Z,98449.34
2023-05-22T03:31:39.620Z,98451.70
2023-05-22T03:34:12.565Z,98448.14
2023-05-22T03:36:40.947Z,98447.27
2023-05-22T03:39:08.216Z,98442.95
2023-05-22T03:41:38.998Z,98443.06
2023-05-22T03:44:06.429Z,98446.55
2023-05-22T03:46:34.061Z,98446.22
2023-05-22T03:49:01.333Z,98446.72
2023-05-22T03:51:28.404Z,98446.16
2023-05-22T03:53:55.551Z,98447.83
2023-05-22T03:56:22.912Z,98446.70
2023-05-22T03:58:50.078Z,98447.00
2023-05-22T04:01:17.533Z,98449.91
2023-05-22T04:03:44.729Z,98451.36
2023-05-22T04:06:13.307Z,98448.95
2023-05-22T04:08:40.719Z,98445.30
2023-05-22T04:11:08.094Z,98445.15
2023-05-22T04:13:35.458Z,98446.25
2023-05-22T04:16:03.928Z,98442.90
2023-05-22T04:18:31.234Z,98444.22
2023-05-22T04:20:58.754Z,98443.27
2023-05-22T04:23:25.912Z,98438.09
2023-05-22T04:25:53.375Z,98434.31
2023-05-22T04:28:23.263Z,98434.44
2023-05-22T04:30:50.738Z,98430.11
2023-05-22T04:33:18.681Z,98426.14
2023-05-22T04:35:45.992Z,98426.98
2023-05-22T04:38:13.504Z,98422.80
2023-05-22T04:40:40.814Z,98424.47
2023-05-22T04:43:08.777Z,98420.54
2023-05-22T04:45:35.933Z,98420.20
2023-05-22T04:48:03.561Z,98422.30
2023-05-22T04:50:35.680Z,98426.92
2023-05-22T04:53:03.754Z,98426.83
2023-05-22T04:55:34.594Z,98427.04
2023-05-22T04:58:02.360Z,98428.10
2023-05-22T05:00:29.724Z,98423.98
2023-05-22T05:02:57.840Z,98424.71
2023-05-22T05:05:25.467Z,98424.35
2023-05-22T05:07:54.156Z,98424.48
2023-05-22T05:10:21.409Z,98416.19
2023-05-22T05:12:48.591Z,98420.69
2023-05-22T05:15:15.953Z,98424.66
2023-05-22T05:17:42.976Z,98421.73
2023-05-22T05:20:12.744Z,98417.64
2023-05-22T05:22:40.375Z,98419.81
2023-05-22T05:25:09.605Z,98417.17
2023-05-22T05:27:39.789Z,98418.13
2023-05-22T05:30:08.234Z,98416.55
2023-05-22T05:32:55.263Z,98414.80
2023-05-22T05:35:32.879Z,98418.04
2023-05-22T05:38:09.450Z,98413.77
2023-05-22T05:40:39.321Z,98419.16
2023-05-22T05:43:09.033Z,98415.45
2023-05-22T05:45:36.782Z,98414.54
2023-05-22T05:48:04.997Z,98414.02
2023-05-22T05:50:33.623Z,98413.92
2023-05-22T05:53:01.408Z,98412.91
2023-05-22T05:55:28.962Z,98412.89
2023-05-22T05:57:57.342Z,98413.89
2023-05-22T06:00:35.961Z,98410.71
2023-05-22T06:03:04.619Z,98410.43
2023-05-22T06:05:49.314Z,98409.05
2023-05-22T06:08:36.891Z,98410.92
2023-05-22T06:11:04.381Z,98406.58
2023-05-22T06:13:35.142Z,98408.55
2023-05-22T06:16:04.236Z,98407.38
2023-05-22T06:18:34.466Z,98406.38
2023-05-22T06:21:01.912Z,98407.34
2023-05-22T06:23:29.281Z,98407.58
2023-05-22T06:25:57.048Z,98402.70
2023-05-22T06:28:28.286Z,98403.52
2023-05-22T06:30:57.500Z,98400.04
2023-05-22T06:33:26.810Z,98399.67
2023-05-22T06:35:55.184Z,98393.56
2023-05-22T06:38:22.751Z,98392.38
2023-05-22T06:40:49.906Z,98392.30
2023-05-22T06:43:20.696Z,98390.37
2023-05-22T06:45:55.194Z,98389.34
2023-05-22T06:48:40.438Z,98382.45
2023-05-22T06:51:21.937Z,98379.59
2023-05-22T06:53:51.642Z,98382.86
2023-05-22T06:56:22.477Z,98379.66
2023-05-22T06:58:53.719Z,98378.67
2023-05-22T07:01:23.882Z,98383.92
2023-05-22T07:04:04.845Z,98383.42
2023-05-22T07:06:38.751Z,98384.63
2023-05-22T07:09:06.704Z,98383.05
2023-05-22T07:11:37.855Z,98379.89
2023-05-22T07:14:05.133Z,98377.02
2023-05-22T07:20:51.998Z,98377.48
2023-05-22T07:23:20.567Z,98371.48
2023-05-22T07:25:49.369Z,98370.91
2023-05-22T07:28:16.950Z,98363.10
2023-05-22T07:31:06.975Z,98359.07
2023-05-22T07:33:34.264Z,98361.48
2023-05-22T07:36:01.949Z,98355.80
2023-05-22T07:38:29.199Z,98356.29
2023-05-22T07:40:59.923Z,98355.94
2023-05-22T07:43:27.493Z,98352.73
2023-05-22T07:45:56.020Z,98357.66
2023-05-22T07:48:25.483Z,98358.64
2023-05-22T07:50:52.868Z,98361.34
2023-05-22T07:53:20.455Z,98363.96
2023-05-22T07:55:50.429Z,98361.61
2023-05-22T07:58:17.699Z,98366.09
2023-05-22T08:00:45.153Z,98361.86
2023-05-22T08:03:13.117Z,98361.00
2023-05-22T08:05:40.489Z,98348.66
2023-05-22T08:08:09.896Z,98362.65
2023-05-22T08:13:07.748Z,98365.02
2023-05-22T08:15:34.940Z,98363.59
2023-05-22T08:18:02.328Z,98356.99
2023-05-22T08:20:29.773Z,98356.85
2023-05-22T08:22:58.980Z,98359.02
2023-05-22T08:25:26.231Z,98359.16
2023-05-22T08:27:53.451Z,98356.52
2023-05-22T08:30:20.946Z,98355.84
2023-05-22T08:32:48.213Z,98358.88
2023-05-22T08:35:15.944Z,98352.48
2023-05-22T08:37:43.095Z,98353.27
2023-05-22T08:40:14.384Z,98347.84
2023-05-22T08:42:42.012Z,98345.89
2023-05-22T08:45:09.449Z,98349.10
2023-05-22T08:47:36.938Z,98346.51
2023-05-22T08:50:04.423Z,98346.16
2023-05-22T08:52:47.522Z,98343.48
2023-05-22T08:55:15.322Z,98345.01
2023-05-22T08:57:43.896Z,98341.63
2023-05-22T09:00:12.041Z,98338.46
2023-05-22T09:02:40.732Z,98340.36
2023-05-22T09:05:09.215Z,98341.45
2023-05-22T09:07:38.618Z,98336.41
2023-05-22T09:10:06.959Z,98332.73
2023-05-22T09:12:34.091Z,98325.11
2023-05-22T09:15:13.094Z,98322.97
2023-05-22T09:17:41.199Z,98319.13
2023-05-22T09:20:12.778Z,98316.31
2023-05-22T09:22:40.254Z,98316.57
2023-05-22T09:25:08.093Z,98311.91
2023-05-22T09:27:36.080Z,98313.17
2023-05-22T09:30:03.533Z,98311.98
2023-05-22T09:32:31.210Z,98309.59
2023-05-22T09:35:05.391Z,98307.73
2023-05-22T09:37:34.799Z,98304.35
2023-05-22T09:40:10.510Z,98301.44
2023-05-22T09:42:37.585Z,98296.67
2023-05-22T09:45:06.139Z,98291.96
2023-05-22T09:47:34.128Z,98292.96
2023-05-22T09:50:05.822Z,98288.85
2023-05-22T09:52:34.553Z,98284.84
2023-05-22T09:55:06.812Z,98287.09
2023-05-22T09:57:44.631Z,98283.48
2023-05-22T10:00:15.172Z,98285.70
2023-05-22T10:02:46.005Z,98289.05
2023-05-22T10:05:23.802Z,98282.03
2023-05-22T10:07:55.799Z,98282.30
2023-05-22T10:10:25.077Z,98280.73
2023-05-22T10:12:56.988Z,98281.34
2023-05-22T10:15:24.706Z,98277.06
2023-05-22T10:17:52.614Z,98274.20
2023-05-22T10:20:20.490Z,98267.52
2023-05-22T10:22:50.760Z,98265.46
2023-05-22T10:25:22.976Z,98261.75
2023-05-22T10:27:53.249Z,98259.79
2023-05-22T10:30:36.214Z,98267.81
2023-05-22T10:33:28.411Z,98262.83
2023-05-22T10:36:01.710Z,98261.86
2023-05-22T10:38:50.807Z,98261.67
2023-05-22T10:41:18.420Z,98258.59
2023-05-22T10:43:48.686Z,98257.61
2023-05-22T10:46:16.999Z,98255.59
2023-05-22T10:48:49.553Z,98253.60
2023-05-22T10:51:21.994Z,98250.73
2023-05-22T10:53:57.241Z,98245.55
2023-05-22T10:56:33.171Z,98244.42
2023-05-22T10:59:04.592Z,98244.21
2023-05-22T11:01:37.292Z,98242.36
2023-05-22T11:04:18.271Z,98237.58
2023-05-22T11:07:06.363Z,98233.84
2023-05-22T11:09:47.210Z,98229.02
2023-05-22T11:12:21.935Z,98222.65
2023-05-22T11:14:54.050Z,98222.39
2023-05-22T11:17:27.438Z,98218.88
2023-05-22T11:20:18.425Z,98220.55
2023-05-22T11:23:07.862Z,98213.95
2023-05-22T11:25:37.110Z,98216.92
2023-05-22T11:28:07.396Z,98208.11
2023-05-22T11:30:35.467Z,98210.61
2023-05-22T11:33:02.621Z,98211.37
2023-05-22T11:35:31.018Z,98208.90
2023-05-22T11:37:58.577Z,98203.46
2023-05-22T11:40:28.906Z,98202.69
2023-05-22T11:42:56.466Z,98199.70
2023-05-22T11:45:23.963Z,98198.54
2023-05-22T11:47:51.645Z,98197.81
2023-05-22T11:52:49.612Z,98198.73
2023-05-22T11:55:16.765Z,98197.27
2023-05-22T11:57:44.117Z,98193.77
2023-05-22T12:00:12.085Z,98188.52
2023-05-22T12:02:45.201Z,98188.18
2023-05-22T12:05:13.617Z,98193.06
2023-05-22T12:07:41.153Z,98193.64
2023-05-22T12:10:08.775Z,98191.47
2023-05-22T12:12:37.070Z,98189.23
2023-05-22T12:15:08.058Z,98184.35
2023-05-22T12:17:37.229Z,98184.70
2023-05-22T12:20:05.802Z,98182.86
2023-05-22T12:22:33.076Z,98178.27
2023-05-22T12:25:00.148Z,98172.66
2023-05-22T12:27:33.166Z,98171.98
2023-05-22T12:30:09.943Z,98173.86
2023-05-22T12:32:36.985Z,98170.99
2023-05-22T12:35:04.649Z,98171.88
2023-05-22T12:37:33.699Z,98169.59
2023-05-22T12:40:03.979Z,98173.52
2023-05-22T12:42:31.411Z,98171.73
2023-05-22T12:45:00.164Z,98171.58
2023-05-22T12:47:27.371Z,98164.66
2023-05-22T12:49:54.540Z,98164.29
2023-05-22T12:52:21.554Z,98159.84
2023-05-22T12:54:51.342Z,98159.71
2023-05-22T12:57:18.521Z,98156.65
2023-05-22T12:59:45.519Z,98154.24
2023-05-22T13:02:12.633Z,98150.73
2023-05-22T13:04:39.611Z,98147.04
2023-05-22T13:07:06.666Z,98148.08
2023-05-22T13:09:33.840Z,98151.74
2023-05-22T13:12:00.861Z,98147.52
2023-05-22T13:14:27.822Z,98143.11
2023-05-22T13:16:54.806Z,98143.38
2023-05-22T13:19:21.887Z,98145.89
2023-05-22T13:21:49.007Z,98144.77
2023-05-22T13:24:16.095Z,98140.88
2023-05-22T13:26:44.132Z,98141.38
2023-05-22T13:29:11.236Z,98139.13
2023-05-22T13:31:38.383Z,98141.20
2023-05-22T13:34:05.667Z,98138.31
2023-05-22T13:36:33.425Z,98138.88
2023-05-22T13:39:00.643Z,98138.89
2023-05-22T13:41:27.770Z,98140.34
2023-05-22T13:43:54.821Z,98136.30
2023-05-22T13:46:22.437Z,98136.81
2023-05-22T13:48:49.702Z,98141.05
2023-05-22T13:51:16.881Z,98143.41
2023-05-22T13:53:43.950Z,98141.82
2023-05-22T13:56:10.989Z,98140.27
2023-05-22T13:58:38.183Z,98136.15
2023-05-22T14:01:05.438Z,98136.79
2023-05-22T14:03:33.138Z,98131.82
2023-05-22T14:06:01.219Z,98126.15
2023-05-22T14:08:28.417Z,98129.95
2023-05-22T14:10:55.610Z,98124.34
2023-05-22T14:13:22.641Z,98125.98
2023-05-22T14:15:49.619Z,98128.64
2023-05-22T14:18:17.061Z,98118.80
2023-05-22T14:20:45.984Z,98119.70
2023-05-22T14:23:13.440Z,98115.21
2023-05-22T14:25:42.411Z,98113.30
2023-05-22T14:28:10.608Z,98106.62
2023-05-22T14:30:38.451Z,98104.90
2023-05-22T14:33:06.120Z,98105.79
2023-05-22T14:35:33.688Z,98100.31
2023-05-22T14:38:01.511Z,98106.06
2023-05-22T14:40:28.574Z,98106.14
2023-05-22T14:42:55.776Z,98107.32
2023-05-22T14:45:23.088Z,98101.97
2023-05-22T14:47:50.658Z,98097.98
2023-05-22T14:50:20.271Z,98097.22
2023-05-22T14:52:49.041Z,98096.76
2023-05-22T14:55:16.935Z,98092.77
2023-05-22T14:57:44.411Z,98097.92
2023-05-22T15:00:12.580Z,98092.56
2023-05-22T15:02:40.653Z,98094.09
2023-05-22T15:05:09.192Z,98095.83
2023-05-22T15:07:43.922Z,98091.83
2023-05-22T15:10:12.538Z,98093.39
2023-05-22T15:12:39.546Z,98100.21
2023-05-22T15:15:07.191Z,98102.59
2023-05-22T15:17:34.276Z,98101.45
2023-05-22T15:20:01.390Z,98105.10
2023-05-22T15:22:28.360Z,98097.58
2023-05-22T15:25:10.961Z,98096.16
2023-05-22T15:27:38.865Z,98094.86
2023-05-22T15:30:09.094Z,98098.22
2023-05-22T15:32:37.272Z,98098.50
2023-05-22T15:35:06.215Z,98093.92
2023-05-22T15:37:33.454Z,98092.58
2023-05-22T15:40:01.053Z,98090.61
2023-05-22T15:42:28.352Z,98086.68
2023-05-22T15:44:55.593Z,98084.54
2023-05-22T15:47:22.660Z,98084.95
2023-05-22T15:49:49.815Z,98081.09
2023-05-22T15:52:17.298Z,98079.06
2023-05-22T15:54:44.336Z,98077.08
2023-05-22T15:57:11.400Z,98075.51
2023-05-22T15:59:38.403Z,98073.39
2023-05-22T16:02:05.606Z,98074.50
2023-05-22T16:04:32.571Z,98069.73
2023-05-22T16:06:59.540Z,98067.23
2023-05-22T16:09:26.661Z,98070.62
2023-05-22T16:11:53.662Z,98071.25
2023-05-22T16:14:20.764Z,98066.20
2023-05-22T16:16:47.794Z,98068.56
2023-05-22T16:19:14.845Z,98063.31
2023-05-22T16:21:41.912Z,98064.90
2023-05-22T16:24:10.454Z,98069.20
2023-05-22T16:26:38.594Z,98066.49
2023-05-22T16:29:08.380Z,98068.05
2023-05-22T16:31:35.675Z,98066.14
2023-05-22T16:34:04.296Z,98065.19
2023-05-22T16:36:32.083Z,98066.48
2023-05-22T16:38:59.072Z,98061.86
2023-05-22T16:41:26.284Z,98069.52
2023-05-22T16:43:53.447Z,98068.77
2023-05-22T16:46:20.683Z,98069.30
2023-05-22T16:48:48.011Z,98075.48
2023-05-22T16:51:15.157Z,98078.04
2023-05-22T16:53:42.264Z,98078.02
2023-05-22T16:56:09.393Z,98081.33
2023-05-22T16:58:36.500Z,98076.61
2023-05-22T17:01:05.938Z,98081.98
2023-05-22T17:03:33.660Z,98087.83
2023-05-22T17:06:02.597Z,98084.37
2023-05-22T17:08:30.144Z,98086.02
2023-05-22T17:10:57.472Z,98093.16
2023-05-22T17:13:24.589Z,98092.71
2023-05-22T17:15:51.636Z,98096.71
2023-05-22T17:18:20.319Z,98099.04
2023-05-22T17:20:48.867Z,98100.30
2023-05-22T17:23:16.596Z,98097.55
2023-05-22T17:25:46.001Z,98099.36
2023-05-22T17:28:14.169Z,98100.61
2023-05-22T17:30:43.847Z,98100.78
2023-05-22T17:33:11.696Z,98105.23
2023-05-22T17:35:39.269Z,98102.65
2023-05-22T17:38:07.941Z,98110.75
2023-05-22T17:40:44.209Z,98112.12
2023-05-22T17:43:13.117Z,98113.06
2023-05-22T17:45:41.041Z,98114.89
2023-05-22T17:48:08.262Z,98114.64
2023-05-22T17:50:35.517Z,98113.10
2023-05-22T17:53:02.704Z,98114.21
2023-05-22T17:55:29.907Z,98113.02
2023-05-22T17:57:57.364Z,98111.63
2023-05-22T18:00:24.495Z,98116.35
2023-05-22T18:02:51.642Z,98116.95
2023-05-22T18:05:19.074Z,98115.90
2023-05-22T18:07:46.393Z,98118.60
2023-05-22T18:10:13.622Z,98122.01
2023-05-22T18:12:40.762Z,98121.79
2023-05-22T18:15:10.202Z,98126.20
2023-05-22T18:17:37.836Z,98130.66
2023-05-22T18:20:07.113Z,98131.22
2023-05-22T18:22:37.866Z,98135.66
2023-05-22T18:25:06.646Z,98140.58
2023-05-22T18:27:34.902Z,98145.05
2023-05-22T18:30:03.079Z,98148.92
2023-05-22T18:32:31.214Z,98155.34
2023-05-22T18:34:59.203Z,98160.88
2023-05-22T18:37:26.260Z,98159.03
2023-05-22T18:39:53.246Z,98166.30
2023-05-22T18:42:20.362Z,98172.27
2023-05-22T18:44:49.202Z,98170.38
2023-05-22T18:47:16.681Z,98180.27
2023-05-22T18:49:43.863Z,98182.66
2023-05-22T18:52:10.951Z,98183.70
2023-05-22T18:54:38.168Z,98182.81
2023-05-22T18:57:05.434Z,98182.66
2023-05-22T18:59:32.415Z,98186.64
2023-05-22T19:01:59.588Z,98190.76
2023-05-22T19:04:27.059Z,98190.35
2023-05-22T19:06:55.866Z,98192.80
2023-05-22T19:09:24.513Z,98196.17
2023-05-22T19:11:51.719Z,98195.42
2023-05-22T19:14:19.071Z,98200.38
2023-05-22T19:16:46.278Z,98203.79
2023-05-22T19:19:14.222Z,98200.58
2023-05-22T19:21:41.698Z,98203.96
2023-05-22T19:24:09.148Z,98199.81
2023-05-22T19:26:36.590Z,98200.33
2023-05-22T19:29:03.753Z,98199.92
2023-05-22T19:31:30.975Z,98198.67
2023-05-22T19:33:58.377Z,98198.41
2023-05-22T19:36:25.932Z,98197.52
2023-05-22T19:38:53.772Z,98198.44
2023-05-22T19:41:22.348Z,98199.14
2023-05-22T19:43:51.024Z,98200.48
2023-05-22T19:46:18.237Z,98201.92
2023-05-22T19:48:45.420Z,98203.29
2023-05-22T19:51:12.499Z,98201.26
2023-05-22T19:53:41.098Z,98199.70
2023-05-22T19:56:08.237Z,98198.91
2023-05-22T19:58:35.393Z,98200.23
2023-05-22T20:01:02.514Z,98201.48
2023-05-22T20:03:29.755Z,98201.89
2023-05-22T20:05:56.970Z,98198.05
2023-05-22T20:08:24.863Z,98196.89
2023-05-22T20:10:54.824Z,98197.80
2023-05-22T20:13:21.847Z,98200.95
2023-05-22T20:15:52.775Z,98205.28
2023-05-22T20:18:21.621Z,98204.34
2023-05-22T20:20:49.051Z,98198.86
2023-05-22T20:23:16.242Z,98201.10
2023-05-22T20:25:43.609Z,98204.67
2023-05-22T20:28:11.301Z,98206.04
2023-05-22T20:30:38.441Z,98207.92
2023-05-22T20:33:05.864Z,98210.48
2023-05-22T20:35:33.411Z,98214.29
2023-05-22T20:38:03.456Z,98218.09
2023-05-22T20:40:31.806Z,98217.63
2023-05-22T20:43:01.930Z,98220.20
2023-05-22T20:45:30.027Z,98216.41
2023-05-22T20:47:57.432Z,98222.58
2023-05-22T20:50:24.596Z,98223.77
2023-05-22T20:52:52.317Z,98223.19
2023-05-22T20:55:19.512Z,98223.98
2023-05-22T20:57:46.586Z,98223.05
2023-05-22T21:00:14.276Z,98219.64
2023-05-22T21:02:41.520Z,98225.38
2023-05-22T21:05:09.118Z,98227.27
2023-05-22T21:07:36.478Z,98229.41
2023-05-22T21:10:04.052Z,98234.11
2023-05-22T21:12:31.406Z,98231.02
2023-05-22T21:14:58.790Z,98234.80
2023-05-22T21:17:26.240Z,98228.77
2023-05-22T21:19:53.488Z,98232.24
2023-05-22T21:22:20.848Z,98236.44
2023-05-22T21:24:48.522Z,98238.48
2023-05-22T21:27:15.773Z,98242.67
2023-05-22T21:29:43.025Z,98244.70
2023-05-22T21:32:10.080Z,98244.41
2023-05-22T21:34:36.973Z,98249.48
2023-05-22T21:37:04.414Z,98252.48
2023-05-22T21:39:31.871Z,98251.51
2023-05-22T21:41:59.531Z,98253.25
2023-05-22T21:44:26.783Z,98258.83
2023-05-22T21:46:55.820Z,98261.23
2023-05-22T21:49:23.966Z,98263.67
2023-05-22T21:51:51.431Z,98261.66
2023-05-22T21:54:18.674Z,98263.98
2023-05-22T21:56:46.011Z,98262.95
2023-05-22T21:59:13.425Z,98265.19
2023-05-22T22:01:41.101Z,98264.95
2023-05-22T22:04:08.406Z,98266.69
2023-05-22T22:06:36.828Z,98263.65
2023-05-22T22:09:04.581Z,98267.11
2023-05-22T22:11:31.843Z,98261.21
2023-05-22T22:13:59.095Z,98262.63
2023-05-22T22:16:27.429Z,98258.87
2023-05-22T22:18:55.583Z,98261.46
2023-05-22T22:21:22.817Z,98260.94
2023-05-22T22:23:50.279Z,98265.19
2023-05-22T22:26:17.457Z,98261.17
2023-05-22T22:28:45.173Z,98259.25
2023-05-22T22:31:12.461Z,98260.39
2023-05-22T22:33:39.594Z,98266.82
2023-05-22T22:36:07.116Z,98267.38
2023-05-22T22:38:34.954Z,98269.63
2023-05-22T22:41:04.579Z,98274.65
2023-05-22T22:43:31.849Z,98275.31
2023-05-22T22:45:59.308Z,98280.41
2023-05-22T22:48:27.058Z,98281.39
2023-05-22T22:50:54.353Z,98279.05
2023-05-22T22:53:21.413Z,98281.46
2023-05-22T22:55:58.973Z,98280.14
2023-05-22T22:58:26.327Z,98280.08
2023-05-22T23:00:53.786Z,98277.41
2023-05-22T23:03:21.354Z,98277.38
2023-05-22T23:05:48.829Z,98278.61
2023-05-22T23:08:16.385Z,98276.25
2023-05-22T23:10:43.636Z,98275.59
2023-05-22T23:13:10.921Z,98275.91
2023-05-22T23:15:38.303Z,98277.77
2023-05-22T23:18:05.881Z,98271.98
2023-05-22T23:20:33.398Z,98276.13
2023-05-22T23:23:00.844Z,98272.73
2023-05-22T23:25:28.012Z,98272.55
2023-05-22T23:27:55.563Z,98267.04
2023-05-22T23:30:23.029Z,98264.73
2023-05-22T23:32:50.259Z,98267.38
2023-05-22T23:35:17.576Z,98269.05
2023-05-22T23:37:44.903Z,98272.31
2023-05-22T23:40:12.677Z,98270.70
2023-05-22T23:42:40.062Z,98272.83
2023-05-22T23:45:07.760Z,98273.81
2023-05-22T23:47:34.947Z,98275.76
2023-05-22T23:50:02.244Z,98274.63
2023-05-22T23:52:29.370Z,98276.77
2023-05-22T23:54:56.424Z,98276.91
2023-05-22T23:57:23.490Z,98282.20
2023-05-22T23:59:50.863Z,98282.56
